sensor_id;sensor_type;location;lat;lon;timestamp;pressure;altitude;pressure_sealevel;temperature;humidity
12664;BME280;6396;58.490;15.528;2022-08-27T00:02:02;100786.19;;;21.06;100.00
12664;BME280;6396;58.490;15.528;2022-08-27T00:04:29;100816.59;;;21.07;100.00
12664;BME280;6396;58.490;15.528;2022-08-27T00:06:56;100789.63;;;21.08;100.00
12664;BME280;6396;58.490;15.528;2022-08-27T00:09:23;100757.03;;;20.74;100.00
12664;BME280;6396;58.490;15.528;2022-08-27T00:11:52;100613.53;;;20.12;100.00
12664;BME280;6396;58.490;15.528;2022-08-27T00:14:19;100780.75;;;21.08;100.00
12664;BME280;6396;58.490;15.528;2022-08-27T00:16:46;100681.53;;;20.39;100.00
12664;BME280;6396;58.490;15.528;2022-08-27T00:19:13;100481.16;;;19.19;100.00
12664;BME280;6396;58.490;15.528;2022-08-27T00:21:40;100384.91;;;18.63;100.00
12664;BME280;6396;58.490;15.528;2022-08-27T00:24:06;100778.22;;;21.05;100.00
12664;BME280;6396;58.490;15.528;2022-08-27T00:26:33;100811.31;;;21.05;100.00
12664;BME280;6396;58.490;15.528;2022-08-27T00:29:02;100759.72;;;20.74;100.00
12664;BME280;6396;58.490;15.528;2022-08-27T00:31:30;100671.78;;;20.24;100.00
12664;BME280;6396;58.490;15.528;2022-08-27T00:33:57;100806.72;;;21.08;100.00
12664;BME280;6396;58.490;15.528;2022-08-27T00:36:23;100752.53;;;20.74;100.00
12664;BME280;6396;58.490;15.528;2022-08-27T00:38:50;100566.44;;;19.81;100.00
12664;BME280;6396;58.490;15.528;2022-08-27T00:41:18;100674.25;;;20.41;100.00
12664;BME280;6396;58.490;15.528;2022-08-27T00:43:47;100785.13;;;21.09;100.00
12664;BME280;6396;58.490;15.528;2022-08-27T00:46:22;100788.69;;;21.10;100.00
12664;BME280;6396;58.490;15.528;2022-08-27T00:48:51;100798.66;;;21.08;100.00
12664;BME280;6396;58.490;15.528;2022-08-27T00:51:20;100632.72;;;20.06;100.00
12664;BME280;6396;58.490;15.528;2022-08-27T00:53:47;100795.66;;;21.12;100.00
12664;BME280;6396;58.490;15.528;2022-08-27T00:56:17;100771.63;;;20.96;100.00
12664;BME280;6396;58.490;15.528;2022-08-27T00:58:46;100787.50;;;21.14;100.00
12664;BME280;6396;58.490;15.528;2022-08-27T01:01:18;100790.94;;;21.16;100.00
12664;BME280;6396;58.490;15.528;2022-08-27T01:03:48;100788.81;;;21.21;100.00
12664;BME280;6396;58.490;15.528;2022-08-27T01:06:16;100755.06;;;20.90;100.00
12664;BME280;6396;58.490;15.528;2022-08-27T01:08:47;100801.41;;;21.20;100.00
12664;BME280;6396;58.490;15.528;2022-08-27T01:11:15;100788.81;;;21.21;100.00
12664;BME280;6396;58.490;15.528;2022-08-27T01:13:43;100652.13;;;20.38;100.00
12664;BME280;6396;58.490;15.528;2022-08-27T01:16:10;100717.97;;;20.82;100.00
12664;BME280;6396;58.490;15.528;2022-08-27T01:18:42;100394.41;;;18.95;100.00
12664;BME280;6396;58.490;15.528;2022-08-27T01:21:19;100642.69;;;20.18;100.00
12664;BME280;6396;58.490;15.528;2022-08-27T01:23:52;100753.16;;;20.92;100.00
12664;BME280;6396;58.490;15.528;2022-08-27T01:26:22;100806.34;;;21.26;100.00
12664;BME280;6396;58.490;15.528;2022-08-27T01:28:49;100786.66;;;21.26;100.00
12664;BME280;6396;58.490;15.528;2022-08-27T01:31:17;100792.03;;;21.26;100.00
12664;BME280;6396;58.490;15.528;2022-08-27T01:33:53;100787.44;;;21.28;100.00
12664;BME280;6396;58.490;15.528;2022-08-27T01:36:20;100735.75;;;20.97;100.00
12664;BME280;6396;58.490;15.528;2022-08-27T01:38:47;100645.94;;;20.50;100.00
12664;BME280;6396;58.490;15.528;2022-08-27T01:41:14;100786.38;;;21.30;100.00
12664;BME280;6396;58.490;15.528;2022-08-27T01:43:43;100774.88;;;21.28;100.00
12664;BME280;6396;58.490;15.528;2022-08-27T01:46:10;100781.22;;;21.27;100.00
12664;BME280;6396;58.490;15.528;2022-08-27T01:48:36;100721.69;;;20.94;100.00
12664;BME280;6396;58.490;15.528;2022-08-27T01:51:03;100692.22;;;20.80;100.00
12664;BME280;6396;58.490;15.528;2022-08-27T01:53:34;100618.00;;;20.40;100.00
12664;BME280;6396;58.490;15.528;2022-08-27T01:56:01;100773.34;;;21.24;100.00
12664;BME280;6396;58.490;15.528;2022-08-27T01:58:29;100761.09;;;21.20;100.00
12664;BME280;6396;58.490;15.528;2022-08-27T02:01:00;100762.06;;;21.19;100.00
12664;BME280;6396;58.490;15.528;2022-08-27T02:03:29;100753.97;;;20.92;100.00
12664;BME280;6396;58.490;15.528;2022-08-27T02:05:56;100767.63;;;21.16;100.00
12664;BME280;6396;58.490;15.528;2022-08-27T02:08:23;100367.50;;;18.84;100.00
12664;BME280;6396;58.490;15.528;2022-08-27T02:10:50;100673.22;;;20.56;100.00
12664;BME280;6396;58.490;15.528;2022-08-27T02:13:17;100637.94;;;20.36;100.00
12664;BME280;6396;58.490;15.528;2022-08-27T02:15:44;100428.31;;;19.09;100.00
12664;BME280;6396;58.490;15.528;2022-08-27T02:18:13;100761.50;;;21.14;100.00
12664;BME280;6396;58.490;15.528;2022-08-27T02:20:40;100712.09;;;20.63;100.00
12664;BME280;6396;58.490;15.528;2022-08-27T02:23:08;100764.69;;;21.06;100.00
12664;BME280;6396;58.490;15.528;2022-08-27T02:25:35;100769.34;;;21.04;100.00
12664;BME280;6396;58.490;15.528;2022-08-27T02:28:03;100757.72;;;21.04;100.00
12664;BME280;6396;58.490;15.528;2022-08-27T02:30:31;100755.91;;;21.04;100.00
12664;BME280;6396;58.490;15.528;2022-08-27T02:32:59;100791.66;;;21.05;100.00
12664;BME280;6396;58.490;15.528;2022-08-27T02:35:29;100761.16;;;21.06;100.00
12664;BME280;6396;58.490;15.528;2022-08-27T02:37:57;100784.69;;;21.02;100.00
12664;BME280;6396;58.490;15.528;2022-08-27T02:40:24;100243.19;;;17.78;100.00
12664;BME280;6396;58.490;15.528;2022-08-27T02:42:51;100608.50;;;20.08;100.00
12664;BME280;6396;58.490;15.528;2022-08-27T02:45:19;100749.00;;;21.00;100.00
12664;BME280;6396;58.490;15.528;2022-08-27T02:47:46;100752.56;;;21.01;100.00
12664;BME280;6396;58.490;15.528;2022-08-27T02:50:13;100754.50;;;20.99;100.00
12664;BME280;6396;58.490;15.528;2022-08-27T02:52:42;100599.09;;;20.15;100.00
12664;BME280;6396;58.490;15.528;2022-08-27T02:55:10;100279.06;;;18.03;100.00
12664;BME280;6396;58.490;15.528;2022-08-27T02:57:37;100594.66;;;20.14;100.00
12664;BME280;6396;58.490;15.528;2022-08-27T03:00:05;100749.56;;;21.05;100.00
12664;BME280;6396;58.490;15.528;2022-08-27T03:02:35;100741.59;;;21.04;100.00
12664;BME280;6396;58.490;15.528;2022-08-27T03:05:02;100737.09;;;21.04;100.00
12664;BME280;6396;58.490;15.528;2022-08-27T03:07:28;100272.56;;;18.35;100.00
12664;BME280;6396;58.490;15.528;2022-08-27T03:09:57;100699.44;;;20.65;100.00
12664;BME280;6396;58.490;15.528;2022-08-27T03:12:23;100654.31;;;20.58;100.00
12664;BME280;6396;58.490;15.528;2022-08-27T03:14:51;100652.19;;;20.50;100.00
12664;BME280;6396;58.490;15.528;2022-08-27T03:17:17;100661.22;;;20.62;100.00
12664;BME280;6396;58.490;15.528;2022-08-27T03:20:02;100735.38;;;21.03;100.00
12664;BME280;6396;58.490;15.528;2022-08-27T03:22:30;100369.78;;;18.48;100.00
12664;BME280;6396;58.490;15.528;2022-08-27T03:25:00;100660.13;;;20.52;100.00
12664;BME280;6396;58.490;15.528;2022-08-27T03:27:27;100615.97;;;20.17;100.00
12664;BME280;6396;58.490;15.528;2022-08-27T03:29:54;100627.25;;;20.22;100.00
12664;BME280;6396;58.490;15.528;2022-08-27T03:32:20;100582.09;;;19.87;100.00
12664;BME280;6396;58.490;15.528;2022-08-27T03:34:47;100726.06;;;20.95;100.00
12664;BME280;6396;58.490;15.528;2022-08-27T03:37:14;100720.72;;;20.95;100.00
12664;BME280;6396;58.490;15.528;2022-08-27T03:39:41;100726.19;;;20.93;100.00
12664;BME280;6396;58.490;15.528;2022-08-27T03:42:09;100722.63;;;20.93;100.00
12664;BME280;6396;58.490;15.528;2022-08-27T03:44:37;100724.66;;;20.89;100.00
12664;BME280;6396;58.490;15.528;2022-08-27T03:47:05;100732.81;;;20.88;100.00
12664;BME280;6396;58.490;15.528;2022-08-27T03:49:31;100746.44;;;20.85;100.00
12664;BME280;6396;58.490;15.528;2022-08-27T03:51:58;100707.22;;;20.56;100.00
12664;BME280;6396;58.490;15.528;2022-08-27T03:54:25;100723.16;;;20.59;100.00
12664;BME280;6396;58.490;15.528;2022-08-27T03:56:52;100449.63;;;19.24;100.00
12664;BME280;6396;58.490;15.528;2022-08-27T03:59:20;100548.25;;;19.86;100.00
12664;BME280;6396;58.490;15.528;2022-08-27T04:01:47;100415.66;;;18.84;100.00
12664;BME280;6396;58.490;15.528;2022-08-27T04:04:14;100097.97;;;16.95;100.00
12664;BME280;6396;58.490;15.528;2022-08-27T04:06:41;100392.16;;;18.75;100.00
12664;BME280;6396;58.490;15.528;2022-08-27T04:09:08;100666.97;;;20.43;100.00
12664;BME280;6396;58.490;15.528;2022-08-27T04:11:35;100622.94;;;20.05;100.00
12664;BME280;6396;58.490;15.528;2022-08-27T04:14:02;100722.03;;;20.75;100.00
12664;BME280;6396;58.490;15.528;2022-08-27T04:16:31;100620.25;;;20.05;100.00
12664;BME280;6396;58.490;15.528;2022-08-27T04:18:59;100649.88;;;20.18;100.00
12664;BME280;6396;58.490;15.528;2022-08-27T04:21:26;100729.97;;;20.77;100.00
12664;BME280;6396;58.490;15.528;2022-08-27T04:23:52;100765.09;;;20.74;100.00
12664;BME280;6396;58.490;15.528;2022-08-27T04:26:21;100449.25;;;19.16;100.00
12664;BME280;6396;58.490;15.528;2022-08-27T04:28:48;100512.56;;;19.31;100.00
12664;BME280;6396;58.490;15.528;2022-08-27T04:31:15;100670.34;;;20.33;100.00
12664;BME280;6396;58.490;15.528;2022-08-27T04:33:44;100675.28;;;20.39;100.00
12664;BME280;6396;58.490;15.528;2022-08-27T04:36:10;100594.59;;;19.74;100.00
12664;BME280;6396;58.490;15.528;2022-08-27T04:38:37;100719.25;;;20.77;100.00
12664;BME280;6396;58.490;15.528;2022-08-27T04:41:05;100728.16;;;20.77;100.00
12664;BME280;6396;58.490;15.528;2022-08-27T04:43:51;100603.91;;;20.10;100.00
12664;BME280;6396;58.490;15.528;2022-08-27T04:46:20;100413.03;;;18.97;100.00
12664;BME280;6396;58.490;15.528;2022-08-27T04:48:49;100686.22;;;20.36;100.00
12664;BME280;6396;58.490;15.528;2022-08-27T04:51:16;100570.06;;;19.80;100.00
12664;BME280;6396;58.490;15.528;2022-08-27T04:53:43;100562.34;;;19.76;100.00
12664;BME280;6396;58.490;15.528;2022-08-27T04:56:12;100636.53;;;20.30;100.00
12664;BME280;6396;58.490;15.528;2022-08-27T04:58:40;100648.25;;;20.42;100.00
12664;BME280;6396;58.490;15.528;2022-08-27T05:01:07;100710.91;;;20.81;100.00
12664;BME280;6396;58.490;15.528;2022-08-27T05:03:34;100602.38;;;20.06;100.00
12664;BME280;6396;58.490;15.528;2022-08-27T05:06:04;100590.22;;;20.00;100.00
12664;BME280;6396;58.490;15.528;2022-08-27T05:08:31;100697.47;;;20.81;100.00
12664;BME280;6396;58.490;15.528;2022-08-27T05:10:59;100569.94;;;19.96;100.00
12664;BME280;6396;58.490;15.528;2022-08-27T05:13:27;100601.00;;;20.27;100.00
12664;BME280;6396;58.490;15.528;2022-08-27T05:15:57;100657.00;;;20.58;100.00
12664;BME280;6396;58.490;15.528;2022-08-27T05:18:25;100654.31;;;20.58;100.00
12664;BME280;6396;58.490;15.528;2022-08-27T05:20:52;100735.00;;;20.95;100.00
12664;BME280;6396;58.490;15.528;2022-08-27T05:23:20;100709.59;;;21.01;100.00
12664;BME280;6396;58.490;15.528;2022-08-27T05:25:48;100703.13;;;21.03;100.00
12664;BME280;6396;58.490;15.528;2022-08-27T05:28:17;100704.22;;;21.01;100.00
12664;BME280;6396;58.490;15.528;2022-08-27T05:30:47;100631.06;;;20.32;100.00
12664;BME280;6396;58.490;15.528;2022-08-27T05:33:16;100666.41;;;20.77;100.00
12664;BME280;6396;58.490;15.528;2022-08-27T05:35:45;100589.22;;;20.29;100.00
12664;BME280;6396;58.490;15.528;2022-08-27T05:38:13;100681.16;;;20.84;100.00
12664;BME280;6396;58.490;15.528;2022-08-27T05:40:42;100685.25;;;20.90;100.00
12664;BME280;6396;58.490;15.528;2022-08-27T05:43:10;100704.56;;;21.09;100.00
12664;BME280;6396;58.490;15.528;2022-08-27T05:45:39;100767.94;;;21.12;100.00
12664;BME280;6396;58.490;15.528;2022-08-27T05:48:07;100627.75;;;20.67;100.00
12664;BME280;6396;58.490;15.528;2022-08-27T05:50:36;100664.81;;;20.87;100.00
12664;BME280;6396;58.490;15.528;2022-08-27T05:53:04;100756.91;;;21.16;100.00
12664;BME280;6396;58.490;15.528;2022-08-27T05:55:35;100702.19;;;21.17;100.00
12664;BME280;6396;58.490;15.528;2022-08-27T05:58:03;100643.84;;;20.67;100.00
12664;BME280;6396;58.490;15.528;2022-08-27T06:00:31;100676.75;;;20.96;100.00
12664;BME280;6396;58.490;15.528;2022-08-27T06:03:15;100691.38;;;20.92;100.00
12664;BME280;6396;58.490;15.528;2022-08-27T06:05:42;100711.00;;;21.19;100.00
12664;BME280;6396;58.490;15.528;2022-08-27T06:08:17;100833.06;;;21.15;100.00
12664;BME280;6396;58.490;15.528;2022-08-27T06:10:51;100277.72;;;18.38;100.00
12664;BME280;6396;58.490;15.528;2022-08-27T06:13:19;100313.25;;;18.26;100.00
12664;BME280;6396;58.490;15.528;2022-08-27T06:15:48;100577.38;;;20.05;100.00
12664;BME280;6396;58.490;15.528;2022-08-27T06:18:14;100147.03;;;17.64;100.00
12664;BME280;6396;58.490;15.528;2022-08-27T06:20:41;100619.16;;;20.36;100.00
12664;BME280;6396;58.490;15.528;2022-08-27T06:23:08;100715.03;;;20.99;100.00
12664;BME280;6396;58.490;15.528;2022-08-27T06:25:39;100563.72;;;19.95;100.00
12664;BME280;6396;58.490;15.528;2022-08-27T06:28:06;100666.75;;;20.73;100.00
12664;BME280;6396;58.490;15.528;2022-08-27T06:30:34;100524.28;;;19.57;100.00
12664;BME280;6396;58.490;15.528;2022-08-27T06:33:01;100394.13;;;19.00;100.00
12664;BME280;6396;58.490;15.528;2022-08-27T06:35:28;100734.44;;;21.17;100.00
12664;BME280;6396;58.490;15.528;2022-08-27T06:37:55;100617.38;;;20.49;100.00
12664;BME280;6396;58.490;15.528;2022-08-27T06:40:22;100459.88;;;19.58;100.00
12664;BME280;6396;58.490;15.528;2022-08-27T06:42:49;100532.75;;;20.18;100.00
12664;BME280;6396;58.490;15.528;2022-08-27T06:45:16;100639.81;;;20.87;100.00
12664;BME280;6396;58.490;15.528;2022-08-27T06:47:44;100730.72;;;21.32;100.00
12664;BME280;6396;58.490;15.528;2022-08-27T06:50:11;100713.84;;;21.30;100.00
12664;BME280;6396;58.490;15.528;2022-08-27T06:52:38;100718.88;;;21.35;100.00
12664;BME280;6396;58.490;15.528;2022-08-27T06:55:06;100655.34;;;21.08;100.00
12664;BME280;6396;58.490;15.528;2022-08-27T06:57:35;100693.38;;;21.15;100.00
12664;BME280;6396;58.490;15.528;2022-08-27T07:00:03;100740.72;;;21.43;100.00
12664;BME280;6396;58.490;15.528;2022-08-27T07:02:30;100752.88;;;21.48;100.00
12664;BME280;6396;58.490;15.528;2022-08-27T07:04:58;100701.91;;;21.22;100.00
12664;BME280;6396;58.490;15.528;2022-08-27T07:07:25;100730.19;;;21.52;100.00
12664;BME280;6396;58.490;15.528;2022-08-27T07:09:52;100474.00;;;20.01;100.00
12664;BME280;6396;58.490;15.528;2022-08-27T07:12:19;99988.66;;;16.65;100.00
12664;BME280;6396;58.490;15.528;2022-08-27T07:14:47;100684.28;;;20.91;100.00
12664;BME280;6396;58.490;15.528;2022-08-27T07:17:17;99975.41;;;17.20;100.00
12664;BME280;6396;58.490;15.528;2022-08-27T07:23:15;99936.19;;;16.66;100.00
12664;BME280;6396;58.490;15.528;2022-08-27T07:25:52;100023.91;;;17.13;100.00
12664;BME280;6396;58.490;15.528;2022-08-27T07:28:33;100138.75;;;18.10;100.00
12664;BME280;6396;58.490;15.528;2022-08-27T07:31:00;100137.84;;;17.97;100.00
12664;BME280;6396;58.490;15.528;2022-08-27T07:33:27;100345.66;;;19.57;100.00
12664;BME280;6396;58.490;15.528;2022-08-27T07:35:54;100188.56;;;18.11;100.00
12664;BME280;6396;58.490;15.528;2022-08-27T07:38:23;100729.78;;;21.83;100.00
12664;BME280;6396;58.490;15.528;2022-08-27T07:40:50;100179.94;;;18.34;100.00
12664;BME280;6396;58.490;15.528;2022-08-27T07:43:18;100458.22;;;20.36;100.00
12664;BME280;6396;58.490;15.528;2022-08-27T07:46:02;99974.16;;;17.54;100.00
12664;BME280;6396;58.490;15.528;2022-08-27T07:48:31;100488.03;;;20.19;100.00
12664;BME280;6396;58.490;15.528;2022-08-27T07:50:59;100739.91;;;21.92;100.00
12664;BME280;6396;58.490;15.528;2022-08-27T07:53:30;100646.69;;;21.55;100.00
12664;BME280;6396;58.490;15.528;2022-08-27T07:56:01;100097.81;;;17.83;100.00
12664;BME280;6396;58.490;15.528;2022-08-27T07:58:29;100025.06;;;17.92;100.00
12664;BME280;6396;58.490;15.528;2022-08-27T08:00:56;100745.63;;;22.00;100.00
12664;BME280;6396;58.490;15.528;2022-08-27T08:03:23;100718.72;;;22.00;100.00
12664;BME280;6396;58.490;15.528;2022-08-27T08:05:50;100657.84;;;21.62;100.00
12664;BME280;6396;58.490;15.528;2022-08-27T08:08:18;100724.09;;;22.00;100.00
12664;BME280;6396;58.490;15.528;2022-08-27T08:10:47;100388.31;;;20.12;100.00
12664;BME280;6396;58.490;15.528;2022-08-27T08:13:15;100750.66;;;22.05;100.00
12664;BME280;6396;58.490;15.528;2022-08-27T08:15:43;100722.69;;;22.07;100.00
12664;BME280;6396;58.490;15.528;2022-08-27T08:18:10;100334.00;;;19.71;100.00
12664;BME280;6396;58.490;15.528;2022-08-27T08:20:38;100732.44;;;22.21;100.00
12664;BME280;6396;58.490;15.528;2022-08-27T08:23:06;100760.09;;;22.23;100.00
12664;BME280;6396;58.490;15.528;2022-08-27T08:25:33;100720.69;;;22.22;100.00
12664;BME280;6396;58.490;15.528;2022-08-27T08:28:01;100255.97;;;19.50;100.00
12664;BME280;6396;58.490;15.528;2022-08-27T08:30:29;100137.34;;;18.71;100.00
12664;BME280;6396;58.490;15.528;2022-08-27T08:32:55;100007.47;;;17.75;100.00
12664;BME280;6396;58.490;15.528;2022-08-27T08:35:22;100652.34;;;21.63;100.00
12664;BME280;6396;58.490;15.528;2022-08-27T08:37:50;100731.34;;;22.24;100.00
12664;BME280;6396;58.490;15.528;2022-08-27T08:40:24;100394.69;;;20.24;100.00
12664;BME280;6396;58.490;15.528;2022-08-27T08:42:54;100539.44;;;21.02;100.00
12664;BME280;6396;58.490;15.528;2022-08-27T08:45:26;100733.38;;;22.33;100.00
12664;BME280;6396;58.490;15.528;2022-08-27T08:47:58;100609.56;;;21.60;100.00
12664;BME280;6396;58.490;15.528;2022-08-27T08:50:31;100742.59;;;22.41;100.00
12664;BME280;6396;58.490;15.528;2022-08-27T08:53:03;100748.44;;;22.48;100.00
12664;BME280;6396;58.490;15.528;2022-08-27T08:55:38;100731.94;;;22.52;100.00
12664;BME280;6396;58.490;15.528;2022-08-27T08:58:11;100775.44;;;22.59;100.00
12664;BME280;6396;58.490;15.528;2022-08-27T09:00:43;100740.88;;;22.65;100.00
12664;BME280;6396;58.490;15.528;2022-08-27T09:03:11;100648.28;;;22.19;100.00
12664;BME280;6396;58.490;15.528;2022-08-27T09:05:44;100449.53;;;21.08;100.00
12664;BME280;6396;58.490;15.528;2022-08-27T09:08:17;100340.69;;;20.16;100.00
12664;BME280;6396;58.490;15.528;2022-08-27T09:10:52;100579.63;;;21.77;100.00
12664;BME280;6396;58.490;15.528;2022-08-27T09:13:22;100636.22;;;22.25;100.00
12664;BME280;6396;58.490;15.528;2022-08-27T09:15:56;100695.56;;;22.83;100.00
12664;BME280;6396;58.490;15.528;2022-08-27T09:18:24;100733.28;;;23.17;100.00
12664;BME280;6396;58.490;15.528;2022-08-27T09:20:58;100743.56;;;23.23;100.00
12664;BME280;6396;58.490;15.528;2022-08-27T09:23:35;100734.25;;;23.40;100.00
12664;BME280;6396;58.490;15.528;2022-08-27T09:26:16;100721.34;;;23.33;100.00
12664;BME280;6396;58.490;15.528;2022-08-27T09:28:43;100645.81;;;23.21;100.00
12664;BME280;6396;58.490;15.528;2022-08-27T09:31:45;100742.66;;;23.92;100.00
12664;BME280;6396;58.490;15.528;2022-08-27T09:34:26;100668.94;;;23.59;100.00
12664;BME280;6396;58.490;15.528;2022-08-27T09:37:03;100309.00;;;21.54;100.00
12664;BME280;6396;58.490;15.528;2022-08-27T09:39:34;100392.09;;;21.81;100.00
12664;BME280;6396;58.490;15.528;2022-08-27T09:42:02;100166.59;;;20.38;100.00
12664;BME280;6396;58.490;15.528;2022-08-27T09:44:44;100035.81;;;20.05;100.00
12664;BME280;6396;58.490;15.528;2022-08-27T09:47:43;100223.69;;;21.34;100.00
12664;BME280;6396;58.490;15.528;2022-08-27T09:50:41;100719.63;;;24.33;100.00
12664;BME280;6396;58.490;15.528;2022-08-27T09:56:34;100122.09;;;20.59;100.00
12664;BME280;6396;58.490;15.528;2022-08-27T10:02:30;100617.69;;;23.92;100.00
12664;BME280;6396;58.490;15.528;2022-08-27T10:08:23;100102.84;;;20.99;100.00
12664;BME280;6396;58.490;15.528;2022-08-27T10:10:55;100474.38;;;23.32;100.00
12664;BME280;6396;58.490;15.528;2022-08-27T10:13:27;100058.72;;;20.80;100.00
12664;BME280;6396;58.490;15.528;2022-08-27T10:16:56;99964.09;;;19.85;100.00
12664;BME280;6396;58.490;15.528;2022-08-27T10:20:03;100058.75;;;20.09;100.00
12664;BME280;6396;58.490;15.528;2022-08-27T10:22:46;100047.13;;;20.79;100.00
12664;BME280;6396;58.490;15.528;2022-08-27T10:25:29;100051.56;;;20.91;100.00
12664;BME280;6396;58.490;15.528;2022-08-27T10:28:06;100052.03;;;20.96;100.00
12664;BME280;6396;58.490;15.528;2022-08-27T10:30:57;100716.00;;;25.08;100.00
12664;BME280;6396;58.490;15.528;2022-08-27T10:33:36;100111.47;;;21.49;100.00
12664;BME280;6396;58.490;15.528;2022-08-27T10:36:09;100123.31;;;21.35;100.00
12664;BME280;6396;58.490;15.528;2022-08-27T10:38:45;100307.75;;;22.61;100.00
12664;BME280;6396;58.490;15.528;2022-08-27T10:41:25;100477.66;;;23.35;100.00
12664;BME280;6396;58.490;15.528;2022-08-27T10:44:16;100750.50;;;24.84;100.00
12664;BME280;6396;58.490;15.528;2022-08-27T10:47:19;100475.56;;;23.27;100.00
12664;BME280;6396;58.490;15.528;2022-08-27T10:50:01;100318.75;;;22.36;100.00
12664;BME280;6396;58.490;15.528;2022-08-27T10:52:35;100015.16;;;20.42;100.00
12664;BME280;6396;58.490;15.528;2022-08-27T10:55:10;100112.66;;;20.88;100.00
12664;BME280;6396;58.490;15.528;2022-08-27T10:58:12;99967.63;;;20.33;100.00
12664;BME280;6396;58.490;15.528;2022-08-27T11:00:55;100746.59;;;24.77;100.00
12664;BME280;6396;58.490;15.528;2022-08-27T11:03:27;100648.06;;;24.38;100.00
12664;BME280;6396;58.490;15.528;2022-08-27T11:05:59;100623.44;;;24.20;100.00
12664;BME280;6396;58.490;15.528;2022-08-27T11:08:34;100469.09;;;23.30;100.00
12664;BME280;6396;58.490;15.528;2022-08-27T11:11:06;100512.06;;;23.65;100.00
12664;BME280;6396;58.490;15.528;2022-08-27T11:13:43;100682.47;;;24.68;100.00
12664;BME280;6396;58.490;15.528;2022-08-27T11:16:16;100269.09;;;22.29;100.00
12664;BME280;6396;58.490;15.528;2022-08-27T11:18:48;100722.94;;;24.90;100.00
12664;BME280;6396;58.490;15.528;2022-08-27T11:21:23;100651.25;;;24.43;100.00
12664;BME280;6396;58.490;15.528;2022-08-27T11:23:55;100781.78;;;24.97;100.00
12664;BME280;6396;58.490;15.528;2022-08-27T11:26:25;100504.97;;;23.31;100.00
12664;BME280;6396;58.490;15.528;2022-08-27T11:28:57;100672.63;;;24.35;100.00
12664;BME280;6396;58.490;15.528;2022-08-27T11:31:39;100021.78;;;20.49;100.00
12664;BME280;6396;58.490;15.528;2022-08-27T11:34:17;100719.34;;;25.00;100.00
12664;BME280;6396;58.490;15.528;2022-08-27T11:36:57;100413.75;;;23.04;100.00
12664;BME280;6396;58.490;15.528;2022-08-27T11:39:48;100491.50;;;23.53;100.00
12664;BME280;6396;58.490;15.528;2022-08-27T11:42:33;100557.09;;;23.96;100.00
12664;BME280;6396;58.490;15.528;2022-08-27T11:45:07;100085.69;;;21.13;100.00
12664;BME280;6396;58.490;15.528;2022-08-27T11:47:36;100174.44;;;21.23;100.00
12664;BME280;6396;58.490;15.528;2022-08-27T11:50:28;100736.81;;;24.96;100.00
12664;BME280;6396;58.490;15.528;2022-08-27T11:53:04;100332.31;;;22.45;100.00
12664;BME280;6396;58.490;15.528;2022-08-27T11:55:35;100485.25;;;23.19;100.00
12664;BME280;6396;58.490;15.528;2022-08-27T11:58:08;100672.44;;;24.48;100.00
12664;BME280;6396;58.490;15.528;2022-08-27T12:00:39;100750.06;;;24.99;100.00
12664;BME280;6396;58.490;15.528;2022-08-27T12:03:09;100483.41;;;23.42;100.00
12664;BME280;6396;58.490;15.528;2022-08-27T12:05:42;100488.75;;;23.64;100.00
12664;BME280;6396;58.490;15.528;2022-08-27T12:08:16;100721.09;;;25.01;100.00
12664;BME280;6396;58.490;15.528;2022-08-27T12:10:53;100736.44;;;25.01;100.00
12664;BME280;6396;58.490;15.528;2022-08-27T12:13:31;100698.09;;;24.64;100.00
12664;BME280;6396;58.490;15.528;2022-08-27T12:16:10;100507.28;;;23.68;100.00
12664;BME280;6396;58.490;15.528;2022-08-27T12:18:50;100720.84;;;24.93;100.00
12664;BME280;6396;58.490;15.528;2022-08-27T12:21:29;100619.47;;;24.36;100.00
12664;BME280;6396;58.490;15.528;2022-08-27T12:24:33;100710.81;;;24.84;100.00
12664;BME280;6396;58.490;15.528;2022-08-27T12:27:15;100715.25;;;24.85;100.00
12664;BME280;6396;58.490;15.528;2022-08-27T12:29:47;100708.09;;;24.84;100.00
12664;BME280;6396;58.490;15.528;2022-08-27T12:32:37;100310.31;;;22.51;100.00
12664;BME280;6396;58.490;15.528;2022-08-27T12:35:10;100706.41;;;24.83;100.00
12664;BME280;6396;58.490;15.528;2022-08-27T12:37:42;100710.09;;;24.82;100.00
12664;BME280;6396;58.490;15.528;2022-08-27T12:40:20;100709.22;;;24.82;100.00
12664;BME280;6396;58.490;15.528;2022-08-27T12:42:49;100436.97;;;23.27;100.00
12664;BME280;6396;58.490;15.528;2022-08-27T12:45:22;100700.09;;;24.94;100.00
12664;BME280;6396;58.490;15.528;2022-08-27T12:47:52;100699.69;;;24.98;100.00
12664;BME280;6396;58.490;15.528;2022-08-27T12:50:23;100656.97;;;24.72;100.00
12664;BME280;6396;58.490;15.528;2022-08-27T12:53:15;100695.88;;;25.01;100.00
12664;BME280;6396;58.490;15.528;2022-08-27T12:56:09;100650.53;;;24.84;100.00
12664;BME280;6396;58.490;15.528;2022-08-27T12:58:48;100689.72;;;25.10;100.00
12664;BME280;6396;58.490;15.528;2022-08-27T13:01:26;100691.41;;;25.11;100.00
12664;BME280;6396;58.490;15.528;2022-08-27T13:03:57;100684.31;;;25.10;100.00
12664;BME280;6396;58.490;15.528;2022-08-27T13:06:27;100437.13;;;23.37;100.00
12664;BME280;6396;58.490;15.528;2022-08-27T13:08:56;100445.19;;;23.48;100.00
12664;BME280;6396;58.490;15.528;2022-08-27T13:11:25;100681.88;;;25.07;100.00
12664;BME280;6396;58.490;15.528;2022-08-27T13:14:04;100483.19;;;23.87;100.00
12664;BME280;6396;58.490;15.528;2022-08-27T13:16:31;100671.56;;;25.01;100.00